sensor_id;sensor_type;location;lat;lon;timestamp;P1;durP1;ratioP1;P2;durP2;ratioP2
56481;SDS011;42384;45.186;19.958;2023-12-22T00:00:31;11.63;;;7.20;;
56481;SDS011;42384;45.186;19.958;2023-12-22T00:02:57;13.53;;;8.00;;
56481;SDS011;42384;45.186;19.958;2023-12-22T00:05:24;13.57;;;6.57;;
56481;SDS011;42384;45.186;19.958;2023-12-22T00:10:17;13.40;;;6.75;;
56481;SDS011;42384;45.186;19.958;2023-12-22T00:12:43;16.10;;;7.38;;
56481;SDS011;42384;45.186;19.958;2023-12-22T00:15:09;12.80;;;6.33;;
56481;SDS011;42384;45.186;19.958;2023-12-22T00:17:35;18.37;;;7.67;;
56481;SDS011;42384;45.186;19.958;2023-12-22T00:20:02;15.67;;;8.10;;
56481;SDS011;42384;45.186;19.958;2023-12-22T00:22:28;13.45;;;6.78;;
56481;SDS011;42384;45.186;19.958;2023-12-22T00:27:21;18.30;;;6.68;;
56481;SDS011;42384;45.186;19.958;2023-12-22T00:29:48;13.18;;;7.35;;
56481;SDS011;42384;45.186;19.958;2023-12-22T00:32:14;13.50;;;7.43;;
56481;SDS011;42384;45.186;19.958;2023-12-22T00:34:40;15.47;;;7.60;;
56481;SDS011;42384;45.186;19.958;2023-12-22T00:37:07;19.83;;;10.10;;
56481;SDS011;42384;45.186;19.958;2023-12-22T00:39:33;17.02;;;8.48;;
56481;SDS011;42384;45.186;19.958;2023-12-22T00:41:59;18.53;;;10.77;;
56481;SDS011;42384;45.186;19.958;2023-12-22T00:44:26;14.02;;;7.22;;
56481;SDS011;42384;45.186;19.958;2023-12-22T00:46:54;12.10;;;7.07;;
56481;SDS011;42384;45.186;19.958;2023-12-22T00:49:21;15.90;;;6.82;;
56481;SDS011;42384;45.186;19.958;2023-12-22T00:51:47;16.05;;;9.00;;
56481;SDS011;42384;45.186;19.958;2023-12-22T00:54:13;17.67;;;7.73;;
56481;SDS011;42384;45.186;19.958;2023-12-22T00:56:40;20.50;;;13.45;;
56481;SDS011;42384;45.186;19.958;2023-12-22T00:59:06;11.50;;;6.47;;
56481;SDS011;42384;45.186;19.958;2023-12-22T01:01:32;9.13;;;4.78;;
56481;SDS011;42384;45.186;19.958;2023-12-22T01:03:59;15.85;;;8.25;;
56481;SDS011;42384;45.186;19.958;2023-12-22T01:06:25;10.02;;;5.97;;
56481;SDS011;42384;45.186;19.958;2023-12-22T01:08:51;9.98;;;5.05;;
56481;SDS011;42384;45.186;19.958;2023-12-22T01:11:17;11.68;;;5.53;;
56481;SDS011;42384;45.186;19.958;2023-12-22T01:13:44;8.73;;;5.45;;
56481;SDS011;42384;45.186;19.958;2023-12-22T01:16:10;12.85;;;5.10;;
56481;SDS011;42384;45.186;19.958;2023-12-22T01:18:36;8.63;;;5.28;;
56481;SDS011;42384;45.186;19.958;2023-12-22T01:21:05;7.45;;;4.60;;
56481;SDS011;42384;45.186;19.958;2023-12-22T01:23:31;9.60;;;5.20;;
56481;SDS011;42384;45.186;19.958;2023-12-22T01:25:57;11.10;;;4.88;;
56481;SDS011;42384;45.186;19.958;2023-12-22T01:28:24;7.65;;;4.60;;
56481;SDS011;42384;45.186;19.958;2023-12-22T01:30:50;11.43;;;5.87;;
56481;SDS011;42384;45.186;19.958;2023-12-22T01:33:16;13.63;;;5.10;;
56481;SDS011;42384;45.186;19.958;2023-12-22T01:35:42;8.20;;;4.75;;
56481;SDS011;42384;45.186;19.958;2023-12-22T01:38:09;8.60;;;4.80;;
56481;SDS011;42384;45.186;19.958;2023-12-22T01:40:35;8.45;;;4.93;;
56481;SDS011;42384;45.186;19.958;2023-12-22T01:43:01;8.50;;;4.95;;
56481;SDS011;42384;45.186;19.958;2023-12-22T01:45:27;10.35;;;5.22;;
56481;SDS011;42384;45.186;19.958;2023-12-22T01:47:54;8.00;;;4.37;;
56481;SDS011;42384;45.186;19.958;2023-12-22T01:50:20;9.43;;;4.72;;
56481;SDS011;42384;45.186;19.958;2023-12-22T01:52:47;8.05;;;4.90;;
56481;SDS011;42384;45.186;19.958;2023-12-22T01:55:13;8.32;;;4.65;;
56481;SDS011;42384;45.186;19.958;2023-12-22T01:57:41;9.15;;;4.38;;
56481;SDS011;42384;45.186;19.958;2023-12-22T02:00:10;10.50;;;4.72;;
56481;SDS011;42384;45.186;19.958;2023-12-22T02:02:37;7.05;;;4.55;;
56481;SDS011;42384;45.186;19.958;2023-12-22T02:05:04;7.40;;;5.15;;
56481;SDS011;42384;45.186;19.958;2023-12-22T02:07:31;8.02;;;3.88;;
56481;SDS011;42384;45.186;19.958;2023-12-22T02:09:57;8.20;;;3.85;;
56481;SDS011;42384;45.186;19.958;2023-12-22T02:12:24;8.27;;;4.23;;
56481;SDS011;42384;45.186;19.958;2023-12-22T02:14:50;6.65;;;4.38;;
56481;SDS011;42384;45.186;19.958;2023-12-22T02:17:24;6.50;;;3.77;;
56481;SDS011;42384;45.186;19.958;2023-12-22T02:19:51;7.63;;;4.15;;
56481;SDS011;42384;45.186;19.958;2023-12-22T02:22:20;6.03;;;3.92;;
56481;SDS011;42384;45.186;19.958;2023-12-22T02:24:47;6.20;;;3.63;;
56481;SDS011;42384;45.186;19.958;2023-12-22T02:29:50;5.15;;;3.33;;
56481;SDS011;42384;45.186;19.958;2023-12-22T02:32:30;10.70;;;3.80;;
56481;SDS011;42384;45.186;19.958;2023-12-22T02:34:57;5.38;;;3.67;;
56481;SDS011;42384;45.186;19.958;2023-12-22T02:37:24;6.70;;;3.42;;
56481;SDS011;42384;45.186;19.958;2023-12-22T02:39:50;7.60;;;3.20;;
56481;SDS011;42384;45.186;19.958;2023-12-22T02:42:17;7.25;;;3.50;;
56481;SDS011;42384;45.186;19.958;2023-12-22T02:44:45;6.22;;;3.42;;
56481;SDS011;42384;45.186;19.958;2023-12-22T02:47:11;5.15;;;3.42;;
56481;SDS011;42384;45.186;19.958;2023-12-22T02:49:37;5.25;;;3.03;;
56481;SDS011;42384;45.186;19.958;2023-12-22T02:52:04;5.77;;;3.33;;
56481;SDS011;42384;45.186;19.958;2023-12-22T02:54:30;4.78;;;2.88;;
56481;SDS011;42384;45.186;19.958;2023-12-22T02:56:58;7.25;;;3.47;;
56481;SDS011;42384;45.186;19.958;2023-12-22T03:01:53;7.60;;;3.63;;
56481;SDS011;42384;45.186;19.958;2023-12-22T03:04:20;6.28;;;3.33;;
56481;SDS011;42384;45.186;19.958;2023-12-22T03:06:46;5.97;;;3.53;;
56481;SDS011;42384;45.186;19.958;2023-12-22T03:09:13;10.57;;;4.95;;
56481;SDS011;42384;45.186;19.958;2023-12-22T03:11:39;8.88;;;4.88;;
56481;SDS011;42384;45.186;19.958;2023-12-22T03:14:05;8.60;;;5.60;;
56481;SDS011;42384;45.186;19.958;2023-12-22T03:16:31;13.45;;;6.82;;
56481;SDS011;42384;45.186;19.958;2023-12-22T03:18:57;17.10;;;9.10;;
56481;SDS011;42384;45.186;19.958;2023-12-22T03:21:24;16.83;;;9.32;;
56481;SDS011;42384;45.186;19.958;2023-12-22T03:23:50;20.13;;;10.93;;
56481;SDS011;42384;45.186;19.958;2023-12-22T03:26:16;15.13;;;9.93;;
56481;SDS011;42384;45.186;19.958;2023-12-22T03:28:43;16.25;;;11.20;;
56481;SDS011;42384;45.186;19.958;2023-12-22T03:31:09;19.37;;;11.33;;
56481;SDS011;42384;45.186;19.958;2023-12-22T03:33:35;17.10;;;11.30;;
56481;SDS011;42384;45.186;19.958;2023-12-22T03:36:01;15.48;;;10.82;;
56481;SDS011;42384;45.186;19.958;2023-12-22T03:38:28;19.07;;;11.93;;
56481;SDS011;42384;45.186;19.958;2023-12-22T03:40:54;20.55;;;12.85;;
56481;SDS011;42384;45.186;19.958;2023-12-22T03:43:20;19.42;;;12.57;;
56481;SDS011;42384;45.186;19.958;2023-12-22T03:45:47;17.60;;;11.73;;
56481;SDS011;42384;45.186;19.958;2023-12-22T03:48:13;16.57;;;10.53;;
56481;SDS011;42384;45.186;19.958;2023-12-22T03:50:39;14.13;;;9.38;;
56481;SDS011;42384;45.186;19.958;2023-12-22T03:53:05;17.33;;;9.63;;
56481;SDS011;42384;45.186;19.958;2023-12-22T03:55:32;13.90;;;8.68;;
56481;SDS011;42384;45.186;19.958;2023-12-22T03:57:58;16.17;;;9.07;;
56481;SDS011;42384;45.186;19.958;2023-12-22T04:00:24;11.88;;;6.72;;
56481;SDS011;42384;45.186;19.958;2023-12-22T04:02:50;13.48;;;7.88;;
56481;SDS011;42384;45.186;19.958;2023-12-22T04:05:17;13.15;;;8.02;;
56481;SDS011;42384;45.186;19.958;2023-12-22T04:07:43;10.73;;;6.40;;
56481;SDS011;42384;45.186;19.958;2023-12-22T04:10:09;9.13;;;6.45;;
56481;SDS011;42384;45.186;19.958;2023-12-22T04:12:35;8.03;;;4.50;;
56481;SDS011;42384;45.186;19.958;2023-12-22T04:15:02;8.87;;;4.43;;
56481;SDS011;42384;45.186;19.958;2023-12-22T04:17:28;10.53;;;4.03;;
56481;SDS011;42384;45.186;19.958;2023-12-22T04:19:54;7.68;;;4.78;;
56481;SDS011;42384;45.186;19.958;2023-12-22T04:22:21;6.93;;;3.40;;
56481;SDS011;42384;45.186;19.958;2023-12-22T04:24:48;8.88;;;4.40;;
56481;SDS011;42384;45.186;19.958;2023-12-22T04:27:15;8.97;;;5.33;;
56481;SDS011;42384;45.186;19.958;2023-12-22T04:29:41;10.55;;;5.97;;
56481;SDS011;42384;45.186;19.958;2023-12-22T04:32:07;10.77;;;6.85;;
56481;SDS011;42384;45.186;19.958;2023-12-22T04:34:33;10.93;;;7.20;;
56481;SDS011;42384;45.186;19.958;2023-12-22T04:37:00;12.53;;;7.37;;
56481;SDS011;42384;45.186;19.958;2023-12-22T04:39:26;11.65;;;7.60;;
56481;SDS011;42384;45.186;19.958;2023-12-22T04:41:52;12.70;;;8.07;;
56481;SDS011;42384;45.186;19.958;2023-12-22T04:44:18;11.93;;;8.13;;
56481;SDS011;42384;45.186;19.958;2023-12-22T04:46:45;13.18;;;8.27;;
56481;SDS011;42384;45.186;19.958;2023-12-22T04:49:11;17.23;;;9.40;;
56481;SDS011;42384;45.186;19.958;2023-12-22T04:51:37;14.27;;;8.73;;
56481;SDS011;42384;45.186;19.958;2023-12-22T04:54:04;12.77;;;8.50;;
56481;SDS011;42384;45.186;19.958;2023-12-22T04:56:30;11.95;;;9.18;;
56481;SDS011;42384;45.186;19.958;2023-12-22T04:58:57;10.98;;;8.38;;
56481;SDS011;42384;45.186;19.958;2023-12-22T05:01:23;13.73;;;9.37;;
56481;SDS011;42384;45.186;19.958;2023-12-22T05:03:50;16.48;;;9.90;;
56481;SDS011;42384;45.186;19.958;2023-12-22T05:06:16;14.93;;;9.48;;
56481;SDS011;42384;45.186;19.958;2023-12-22T05:08:43;14.02;;;9.38;;
56481;SDS011;42384;45.186;19.958;2023-12-22T05:11:09;13.48;;;9.52;;
56481;SDS011;42384;45.186;19.958;2023-12-22T05:13:35;15.07;;;10.13;;
56481;SDS011;42384;45.186;19.958;2023-12-22T05:16:02;16.02;;;9.30;;
56481;SDS011;42384;45.186;19.958;2023-12-22T05:18:29;13.07;;;9.50;;
56481;SDS011;42384;45.186;19.958;2023-12-22T05:20:56;12.48;;;9.40;;
56481;SDS011;42384;45.186;19.958;2023-12-22T05:23:22;12.60;;;8.90;;
56481;SDS011;42384;45.186;19.958;2023-12-22T05:25:48;13.05;;;9.50;;
56481;SDS011;42384;45.186;19.958;2023-12-22T05:28:15;13.57;;;9.03;;
56481;SDS011;42384;45.186;19.958;2023-12-22T05:30:41;12.85;;;9.07;;
56481;SDS011;42384;45.186;19.958;2023-12-22T05:33:07;13.70;;;9.00;;
56481;SDS011;42384;45.186;19.958;2023-12-22T05:35:34;11.63;;;7.93;;
56481;SDS011;42384;45.186;19.958;2023-12-22T05:38:00;11.50;;;7.40;;
56481;SDS011;42384;45.186;19.958;2023-12-22T05:40:26;11.65;;;8.05;;
56481;SDS011;42384;45.186;19.958;2023-12-22T05:42:52;11.43;;;6.90;;
56481;SDS011;42384;45.186;19.958;2023-12-22T05:45:19;9.65;;;6.85;;
56481;SDS011;42384;45.186;19.958;2023-12-22T05:47:45;10.20;;;6.28;;
56481;SDS011;42384;45.186;19.958;2023-12-22T05:50:12;8.80;;;6.07;;
56481;SDS011;42384;45.186;19.958;2023-12-22T05:52:38;9.00;;;5.63;;
56481;SDS011;42384;45.186;19.958;2023-12-22T05:55:05;9.17;;;5.30;;
56481;SDS011;42384;45.186;19.958;2023-12-22T05:57:31;8.60;;;4.82;;
56481;SDS011;42384;45.186;19.958;2023-12-22T05:59:57;6.13;;;4.13;;
56481;SDS011;42384;45.186;19.958;2023-12-22T06:02:24;5.45;;;3.80;;
56481;SDS011;42384;45.186;19.958;2023-12-22T06:07:17;5.50;;;3.22;;
56481;SDS011;42384;45.186;19.958;2023-12-22T06:09:45;5.60;;;3.20;;
56481;SDS011;42384;45.186;19.958;2023-12-22T06:12:11;7.93;;;3.20;;
56481;SDS011;42384;45.186;19.958;2023-12-22T06:14:37;5.33;;;2.90;;
56481;SDS011;42384;45.186;19.958;2023-12-22T06:17:04;4.47;;;2.47;;
56481;SDS011;42384;45.186;19.958;2023-12-22T06:19:30;3.57;;;2.20;;
56481;SDS011;42384;45.186;19.958;2023-12-22T06:21:56;5.63;;;2.40;;
56481;SDS011;42384;45.186;19.958;2023-12-22T06:24:23;3.45;;;2.00;;
56481;SDS011;42384;45.186;19.958;2023-12-22T06:26:49;3.72;;;1.77;;
56481;SDS011;42384;45.186;19.958;2023-12-22T06:29:15;3.33;;;1.70;;
56481;SDS011;42384;45.186;19.958;2023-12-22T06:31:42;3.10;;;1.92;;
56481;SDS011;42384;45.186;19.958;2023-12-22T06:34:08;3.47;;;1.60;;
56481;SDS011;42384;45.186;19.958;2023-12-22T06:36:34;4.07;;;2.07;;
56481;SDS011;42384;45.186;19.958;2023-12-22T06:39:00;3.72;;;1.48;;
56481;SDS011;42384;45.186;19.958;2023-12-22T06:41:30;5.30;;;1.60;;
56481;SDS011;42384;45.186;19.958;2023-12-22T06:43:57;3.17;;;1.45;;
56481;SDS011;42384;45.186;19.958;2023-12-22T06:46:27;2.83;;;1.52;;
56481;SDS011;42384;45.186;19.958;2023-12-22T06:48:57;3.53;;;1.50;;
56481;SDS011;42384;45.186;19.958;2023-12-22T06:51:26;4.63;;;1.50;;
56481;SDS011;42384;45.186;19.958;2023-12-22T06:53:53;3.95;;;1.60;;
56481;SDS011;42384;45.186;19.958;2023-12-22T06:56:23;2.22;;;1.15;;
56481;SDS011;42384;45.186;19.958;2023-12-22T06:58:50;3.85;;;1.60;;
56481;SDS011;42384;45.186;19.958;2023-12-22T07:01:17;3.35;;;1.13;;
56481;SDS011;42384;45.186;19.958;2023-12-22T07:03:45;2.25;;;1.10;;
56481;SDS011;42384;45.186;19.958;2023-12-22T07:06:11;5.77;;;1.60;;
56481;SDS011;42384;45.186;19.958;2023-12-22T07:08:37;2.40;;;1.23;;
56481;SDS011;42384;45.186;19.958;2023-12-22T07:11:04;6.32;;;2.10;;
56481;SDS011;42384;45.186;19.958;2023-12-22T07:13:31;4.65;;;1.85;;
56481;SDS011;42384;45.186;19.958;2023-12-22T07:15:57;4.18;;;1.75;;
56481;SDS011;42384;45.186;19.958;2023-12-22T07:18:23;3.77;;;1.67;;
56481;SDS011;42384;45.186;19.958;2023-12-22T07:20:50;4.80;;;2.55;;
56481;SDS011;42384;45.186;19.958;2023-12-22T07:23:17;6.68;;;2.58;;
56481;SDS011;42384;45.186;19.958;2023-12-22T07:25:43;5.28;;;2.30;;
56481;SDS011;42384;45.186;19.958;2023-12-22T07:28:09;6.27;;;2.40;;
56481;SDS011;42384;45.186;19.958;2023-12-22T07:30:35;5.47;;;2.23;;
56481;SDS011;42384;45.186;19.958;2023-12-22T07:33:02;5.22;;;3.05;;
56481;SDS011;42384;45.186;19.958;2023-12-22T07:35:29;4.63;;;2.08;;
56481;SDS011;42384;45.186;19.958;2023-12-22T07:37:55;6.53;;;2.00;;
56481;SDS011;42384;45.186;19.958;2023-12-22T07:40:21;4.03;;;1.88;;
56481;SDS011;42384;45.186;19.958;2023-12-22T07:42:48;4.77;;;2.07;;
56481;SDS011;42384;45.186;19.958;2023-12-22T07:45:15;3.88;;;2.50;;
56481;SDS011;42384;45.186;19.958;2023-12-22T07:47:42;6.07;;;2.90;;
56481;SDS011;42384;45.186;19.958;2023-12-22T07:50:08;5.10;;;3.47;;
56481;SDS011;42384;45.186;19.958;2023-12-22T07:52:35;5.90;;;3.30;;
56481;SDS011;42384;45.186;19.958;2023-12-22T07:55:05;7.45;;;3.33;;
56481;SDS011;42384;45.186;19.958;2023-12-22T07:57:31;5.28;;;2.90;;
56481;SDS011;42384;45.186;19.958;2023-12-22T07:59:58;3.95;;;2.25;;
56481;SDS011;42384;45.186;19.958;2023-12-22T08:02:24;6.10;;;2.57;;
56481;SDS011;42384;45.186;19.958;2023-12-22T08:04:50;6.87;;;2.37;;
56481;SDS011;42384;45.186;19.958;2023-12-22T08:07:17;3.97;;;2.28;;
56481;SDS011;42384;45.186;19.958;2023-12-22T08:09:43;4.35;;;2.38;;
56481;SDS011;42384;45.186;19.958;2023-12-22T08:12:10;6.97;;;2.13;;
56481;SDS011;42384;45.186;19.958;2023-12-22T08:14:36;5.33;;;2.73;;
56481;SDS011;42384;45.186;19.958;2023-12-22T08:17:02;5.93;;;2.85;;
56481;SDS011;42384;45.186;19.958;2023-12-22T08:19:28;6.28;;;3.20;;
56481;SDS011;42384;45.186;19.958;2023-12-22T08:21:55;5.60;;;3.27;;
56481;SDS011;42384;45.186;19.958;2023-12-22T08:24:21;4.60;;;3.08;;
56481;SDS011;42384;45.186;19.958;2023-12-22T08:26:48;6.30;;;3.57;;
56481;SDS011;42384;45.186;19.958;2023-12-22T08:29:14;7.65;;;3.38;;
56481;SDS011;42384;45.186;19.958;2023-12-22T08:31:41;6.25;;;3.67;;
56481;SDS011;42384;45.186;19.958;2023-12-22T08:34:08;7.05;;;4.03;;
56481;SDS011;42384;45.186;19.958;2023-12-22T08:36:35;7.70;;;4.87;;
56481;SDS011;42384;45.186;19.958;2023-12-22T08:39:01;11.63;;;5.22;;
56481;SDS011;42384;45.186;19.958;2023-12-22T08:41:28;7.53;;;4.20;;
56481;SDS011;42384;45.186;19.958;2023-12-22T08:43:54;9.97;;;5.00;;
56481;SDS011;42384;45.186;19.958;2023-12-22T08:46:21;8.68;;;4.47;;
56481;SDS011;42384;45.186;19.958;2023-12-22T08:48:50;8.32;;;4.95;;
56481;SDS011;42384;45.186;19.958;2023-12-22T08:51:16;7.40;;;4.55;;
56481;SDS011;42384;45.186;19.958;2023-12-22T08:53:42;6.77;;;4.47;;
56481;SDS011;42384;45.186;19.958;2023-12-22T08:56:08;8.53;;;4.50;;
56481;SDS011;42384;45.186;19.958;2023-12-22T08:58:35;8.37;;;4.63;;
56481;SDS011;42384;45.186;19.958;2023-12-22T09:01:01;10.20;;;5.05;;
56481;SDS011;42384;45.186;19.958;2023-12-22T09:03:28;9.33;;;5.77;;
56481;SDS011;42384;45.186;19.958;2023-12-22T09:05:55;10.45;;;5.50;;
56481;SDS011;42384;45.186;19.958;2023-12-22T09:08:21;8.35;;;4.72;;
56481;SDS011;42384;45.186;19.958;2023-12-22T09:10:48;9.33;;;5.37;;
56481;SDS011;42384;45.186;19.958;2023-12-22T09:13:15;11.02;;;4.90;;
56481;SDS011;42384;45.186;19.958;2023-12-22T09:15:41;7.80;;;3.90;;
56481;SDS011;42384;45.186;19.958;2023-12-22T09:18:11;7.25;;;4.50;;
56481;SDS011;42384;45.186;19.958;2023-12-22T09:23:05;6.63;;;3.88;;
56481;SDS011;42384;45.186;19.958;2023-12-22T09:25:33;5.93;;;3.65;;
56481;SDS011;42384;45.186;19.958;2023-12-22T09:27:59;7.10;;;4.13;;
56481;SDS011;42384;45.186;19.958;2023-12-22T09:30:26;6.60;;;3.90;;
56481;SDS011;42384;45.186;19.958;2023-12-22T09:32:52;5.17;;;3.10;;
56481;SDS011;42384;45.186;19.958;2023-12-22T09:35:18;6.23;;;3.30;;
56481;SDS011;42384;45.186;19.958;2023-12-22T09:37:45;5.78;;;3.28;;
56481;SDS011;42384;45.186;19.958;2023-12-22T09:40:11;7.28;;;3.45;;
56481;SDS011;42384;45.186;19.958;2023-12-22T09:42:39;7.85;;;4.13;;
56481;SDS011;42384;45.186;19.958;2023-12-22T09:45:07;9.80;;;3.80;;
56481;SDS011;42384;45.186;19.958;2023-12-22T09:47:34;9.90;;;4.97;;
56481;SDS011;42384;45.186;19.958;2023-12-22T09:50:01;9.43;;;3.90;;
56481;SDS011;42384;45.186;19.958;2023-12-22T09:52:27;4.72;;;2.85;;
56481;SDS011;42384;45.186;19.958;2023-12-22T09:54:54;5.15;;;2.50;;
56481;SDS011;42384;45.186;19.958;2023-12-22T09:57:21;11.38;;;4.68;;
56481;SDS011;42384;45.186;19.958;2023-12-22T09:59:49;4.80;;;2.33;;
56481;SDS011;42384;45.186;19.958;2023-12-22T10:02:20;4.78;;;2.30;;
56481;SDS011;42384;45.186;19.958;2023-12-22T10:04:46;7.45;;;2.88;;
56481;SDS011;42384;45.186;19.958;2023-12-22T10:07:13;9.75;;;3.80;;
56481;SDS011;42384;45.186;19.958;2023-12-22T10:09:40;7.25;;;4.35;;
56481;SDS011;42384;45.186;19.958;2023-12-22T10:14:33;5.95;;;3.33;;
56481;SDS011;42384;45.186;19.958;2023-12-22T10:17:01;9.32;;;4.22;;
56481;SDS011;42384;45.186;19.958;2023-12-22T10:19:27;7.60;;;4.57;;
56481;SDS011;42384;45.186;19.958;2023-12-22T10:21:53;8.50;;;3.50;;
56481;SDS011;42384;45.186;19.958;2023-12-22T10:27:04;5.78;;;3.40;;
56481;SDS011;42384;45.186;19.958;2023-12-22T10:29:31;7.95;;;3.22;;
56481;SDS011;42384;45.186;19.958;2023-12-22T10:32:00;7.05;;;3.22;;
56481;SDS011;42384;45.186;19.958;2023-12-22T10:34:28;7.05;;;3.22;;
56481;SDS011;42384;45.186;19.958;2023-12-22T10:36:54;6.93;;;3.33;;
56481;SDS011;42384;45.186;19.958;2023-12-22T10:39:20;8.80;;;3.27;;
56481;SDS011;42384;45.186;19.958;2023-12-22T10:41:47;11.23;;;3.20;;
56481;SDS011;42384;45.186;19.958;2023-12-22T10:44:16;7.57;;;2.45;;
56481;SDS011;42384;45.186;19.958;2023-12-22T10:46:43;5.47;;;1.77;;
56481;SDS011;42384;45.186;19.958;2023-12-22T10:49:09;4.60;;;1.60;;
56481;SDS011;42384;45.186;19.958;2023-12-22T10:51:35;4.13;;;1.67;;
56481;SDS011;42384;45.186;19.958;2023-12-22T10:54:02;6.20;;;2.05;;
56481;SDS011;42384;45.186;19.958;2023-12-22T10:56:30;4.45;;;1.52;;
56481;SDS011;42384;45.186;19.958;2023-12-22T10:58:57;5.55;;;1.85;;
56481;SDS011;42384;45.186;19.958;2023-12-22T11:01:24;4.53;;;1.55;;
56481;SDS011;42384;45.186;19.958;2023-12-22T11:03:52;3.45;;;1.63;;
56481;SDS011;42384;45.186;19.958;2023-12-22T11:06:18;3.70;;;1.35;;
56481;SDS011;42384;45.186;19.958;2023-12-22T11:08:44;9.20;;;3.03;;
56481;SDS011;42384;45.186;19.958;2023-12-22T11:13:38;4.00;;;1.27;;
56481;SDS011;42384;45.186;19.958;2023-12-22T11:16:04;3.10;;;1.00;;
56481;SDS011;42384;45.186;19.958;2023-12-22T11:18:31;2.72;;;1.13;;
56481;SDS011;42384;45.186;19.958;2023-12-22T11:20:59;3.60;;;1.05;;
56481;SDS011;42384;45.186;19.958;2023-12-22T11:23:25;6.10;;;1.88;;
56481;SDS011;42384;45.186;19.958;2023-12-22T11:25:52;4.28;;;1.65;;
56481;SDS011;42384;45.186;19.958;2023-12-22T11:28:19;4.53;;;2.20;;
56481;SDS011;42384;45.186;19.958;2023-12-22T11:30:49;2.55;;;1.15;;
56481;SDS011;42384;45.186;19.958;2023-12-22T11:33:17;5.25;;;1.20;;
56481;SDS011;42384;45.186;19.958;2023-12-22T11:35:44;6.07;;;1.60;;
56481;SDS011;42384;45.186;19.958;2023-12-22T11:38:12;5.20;;;1.25;;
56481;SDS011;42384;45.186;19.958;2023-12-22T11:40:39;4.47;;;1.20;;
56481;SDS011;42384;45.186;19.958;2023-12-22T11:43:05;4.05;;;1.25;;
56481;SDS011;42384;45.186;19.958;2023-12-22T11:45:32;4.05;;;1.45;;
56481;SDS011;42384;45.186;19.958;2023-12-22T11:48:06;3.53;;;1.02;;
56481;SDS011;42384;45.186;19.958;2023-12-22T11:50:32;2.70;;;1.30;;
56481;SDS011;42384;45.186;19.958;2023-12-22T11:58:42;4.68;;;1.85;;
56481;SDS011;42384;45.186;19.958;2023-12-22T12:01:16;3.97;;;1.40;;
56481;SDS011;42384;45.186;19.958;2023-12-22T12:03:49;3.75;;;1.90;;
56481;SDS011;42384;45.186;19.958;2023-12-22T12:08:58;6.82;;;1.60;;
56481;SDS011;42384;45.186;19.958;2023-12-22T12:14:35;5.20;;;1.85;;
56481;SDS011;42384;45.186;19.958;2023-12-22T12:17:06;9.55;;;1.65;;
56481;SDS011;42384;45.186;19.958;2023-12-22T12:19:42;4.15;;;1.77;;
56481;SDS011;42384;45.186;19.958;2023-12-22T12:22:08;3.47;;;1.80;;
56481;SDS011;42384;45.186;19.958;2023-12-22T12:24:35;5.13;;;1.93;;
56481;SDS011;42384;45.186;19.958;2023-12-22T12:27:03;4.18;;;1.85;;
56481;SDS011;42384;45.186;19.958;2023-12-22T12:29:29;3.03;;;1.40;;
56481;SDS011;42384;45.186;19.958;2023-12-22T12:32:05;3.20;;;1.38;;
56481;SDS011;42384;45.186;19.958;2023-12-22T12:34:31;4.32;;;1.42;;
56481;SDS011;42384;45.186;19.958;2023-12-22T12:36:58;4.85;;;1.70;;
56481;SDS011;42384;45.186;19.958;2023-12-22T12:39:27;4.00;;;1.58;;
56481;SDS011;42384;45.186;19.958;2023-12-22T12:41:56;7.00;;;1.73;;
56481;SDS011;42384;45.186;19.958;2023-12-22T12:44:25;4.95;;;2.03;;
56481;SDS011;42384;45.186;19.958;2023-12-22T12:46:51;3.58;;;1.52;;
56481;SDS011;42384;45.186;19.958;2023-12-22T12:49:17;3.22;;;1.67;;
56481;SDS011;42384;45.186;19.958;2023-12-22T12:51:46;3.88;;;1.65;;
56481;SDS011;42384;45.186;19.958;2023-12-22T12:54:12;5.43;;;2.22;;
56481;SDS011;42384;45.186;19.958;2023-12-22T12:56:43;6.40;;;2.50;;
56481;SDS011;42384;45.186;19.958;2023-12-22T12:59:13;5.03;;;2.17;;
56481;SDS011;42384;45.186;19.958;2023-12-22T13:01:43;7.15;;;2.38;;
56481;SDS011;42384;45.186;19.958;2023-12-22T13:04:09;4.13;;;2.13;;
56481;SDS011;42384;45.186;19.958;2023-12-22T13:06:42;6.75;;;1.70;;
56481;SDS011;42384;45.186;19.958;2023-12-22T13:09:08;3.10;;;1.52;;
56481;SDS011;42384;45.186;19.958;2023-12-22T13:11:34;5.90;;;2.17;;
56481;SDS011;42384;45.186;19.958;2023-12-22T13:14:01;8.13;;;2.15;;
56481;SDS011;42384;45.186;19.958;2023-12-22T13:16:27;6.80;;;2.50;;
56481;SDS011;42384;45.186;19.958;2023-12-22T13:18:55;5.50;;;2.20;;
56481;SDS011;42384;45.186;19.958;2023-12-22T13:21:22;4.50;;;1.95;;
56481;SDS011;42384;45.186;19.958;2023-12-22T13:24:11;6.65;;;2.70;;
56481;SDS011;42384;45.186;19.958;2023-12-22T13:26:39;5.53;;;3.05;;
56481;SDS011;42384;45.186;19.958;2023-12-22T13:29:05;8.57;;;2.00;;
56481;SDS011;42384;45.186;19.958;2023-12-22T13:31:32;5.88;;;1.75;;
56481;SDS011;42384;45.186;19.958;2023-12-22T13:33:59;4.25;;;1.73;;
56481;SDS011;42384;45.186;19.958;2023-12-22T13:38:51;4.97;;;1.50;;
56481;SDS011;42384;45.186;19.958;2023-12-22T13:41:18;4.03;;;1.70;;
56481;SDS011;42384;45.186;19.958;2023-12-22T13:43:44;5.87;;;1.70;;
56481;SDS011;42384;45.186;19.958;2023-12-22T13:46:11;9.07;;;2.10;;
56481;SDS011;42384;45.186;19.958;2023-12-22T13:51:03;4.05;;;2.00;;
56481;SDS011;42384;45.186;19.958;2023-12-22T13:53:30;4.93;;;2.03;;
56481;SDS011;42384;45.186;19.958;2023-12-22T13:55:56;5.77;;;2.20;;
56481;SDS011;42384;45.186;19.958;2023-12-22T13:58:22;4.68;;;1.90;;
56481;SDS011;42384;45.186;19.958;2023-12-22T14:00:49;4.80;;;1.90;;
56481;SDS011;42384;45.186;19.958;2023-12-22T14:03:15;4.03;;;2.00;;
56481;SDS011;42384;45.186;19.958;2023-12-22T14:05:42;6.17;;;2.13;;
56481;SDS011;42384;45.186;19.958;2023-12-22T14:08:08;5.90;;;2.13;;
56481;SDS011;42384;45.186;19.958;2023-12-22T14:10:34;8.60;;;1.67;;
56481;SDS011;42384;45.186;19.958;2023-12-22T14:13:01;6.55;;;2.63;;
56481;SDS011;42384;45.186;19.958;2023-12-22T14:15:27;4.28;;;1.60;;
56481;SDS011;42384;45.186;19.958;2023-12-22T14:17:56;4.40;;;1.33;;
56481;SDS011;42384;45.186;19.958;2023-12-22T14:20:22;5.72;;;1.55;;
56481;SDS011;42384;45.186;19.958;2023-12-22T14:25:15;4.03;;;1.23;;
56481;SDS011;42384;45.186;19.958;2023-12-22T14:27:42;3.03;;;1.25;;
56481;SDS011;42384;45.186;19.958;2023-12-22T14:30:08;4.75;;;1.58;;
56481;SDS011;42384;45.186;19.958;2023-12-22T14:32:34;4.53;;;1.70;;
56481;SDS011;42384;45.186;19.958;2023-12-22T14:35:00;1.88;;;1.00;;
56481;SDS011;42384;45.186;19.958;2023-12-22T14:37:26;4.10;;;0.90;;
56481;SDS011;42384;45.186;19.958;2023-12-22T14:39:53;2.63;;;1.00;;
56481;SDS011;42384;45.186;19.958;2023-12-22T14:42:19;2.85;;;1.02;;
56481;SDS011;42384;45.186;19.958;2023-12-22T14:44:45;6.22;;;1.27;;
56481;SDS011;42384;45.186;19.958;2023-12-22T14:47:11;3.22;;;1.08;;
56481;SDS011;42384;45.186;19.958;2023-12-22T14:49:37;4.90;;;1.05;;
56481;SDS011;42384;45.186;19.958;2023-12-22T14:52:04;3.45;;;0.95;;
56481;SDS011;42384;45.186;19.958;2023-12-22T14:54:30;3.37;;;0.70;;
56481;SDS011;42384;45.186;19.958;2023-12-22T14:56:56;3.70;;;0.80;;
56481;SDS011;42384;45.186;19.958;2023-12-22T14:59:23;2.40;;;0.80;;
56481;SDS011;42384;45.186;19.958;2023-12-22T15:01:49;3.05;;;1.00;;
56481;SDS011;42384;45.186;19.958;2023-12-22T15:04:16;3.03;;;0.90;;
56481;SDS011;42384;45.186;19.958;2023-12-22T15:06:42;3.17;;;1.23;;
56481;SDS011;42384;45.186;19.958;2023-12-22T15:09:09;2.65;;;0.88;;